deformed-offering

Nearby METAR Reports

 

KNUQ - Moffett Nas/Mtn, California, USA
Distance from station: N 9mi, 14km
Updated: Fri, 23-Jun-2017 10:56pm PDT
Overcast
Overcast
 Wind from N
Wind: N 10 mph , 17 km/h
Temperature: 64°F , 18°C
Dew Point: 61°F , 16°C
Humidity: 88%
Barometer: 29.95 inHg , 1014.2 hPa
Clouds: Overcast
Visibility: 10 miles , 16 km
Cloud details: Overcast 900 ft
2017/06/24 05:56 KNUQ 240556Z 36009KT 10SM OVC009 18/16 A2995 RMK AO2 SLP144 T01780161 10233 20178 51014
KSJC - San Jose, California, USA
Distance from station: NE 9mi, 14km
Updated: Fri, 23-Jun-2017 10:53pm PDT
Few Clouds
Few Clouds
 Wind from WNW
Wind: WNW 9 mph , 15 km/h
Temperature: 64°F , 18°C
Dew Point: 59°F , 15°C
Humidity: 83%
Barometer: 29.94 inHg , 1013.9 hPa
Clouds: Few Clouds
Visibility: 10 miles , 16 km
Cloud details: Few Clouds 1000 ft
2017/06/24 05:53 KSJC 240553Z 30008KT 10SM FEW010 18/15 A2994 RMK AO2 SLP138 T01780150 10256 20178 51015
 
KRHV - San Jose/Reid, California, USA
Distance from station: ENE 12mi, 19km
Updated: Fri, 23-Jun-2017 9:47pm PDT
NOT Current
Clear
Clear
 Wind from calm
Wind: Calm
Temperature: 68°F , 20°C
Dew Point: 59°F , 15°C
Humidity: 73%
Barometer: 29.95 inHg , 1014.2 hPa
Clouds: Clear
Visibility: 10 miles , 16 km
2017/06/24 04:47 KRHV 240447Z 00000KT 10SM SKC 20/15 A2995
KPAO - Palo Alto, California, USA
Distance from station: NNW 14mi, 23km
Updated: Fri, 23-Jun-2017 8:47pm PDT
NOT Current
Clear
Clear
 Wind from NNW
Wind: NNW 15 mph , 24 km/h
Temperature: 64°F , 18°C
Dew Point: 61°F , 16°C
Humidity: 88%
Barometer: 29.92 inHg , 1013.2 hPa
Clouds: Clear
Visibility: 10 miles , 16 km
2017/06/24 03:47 KPAO 240347Z 33013KT 10SM SKC 18/16 A2992 RMK LAST
 
KSQL - San Carlos Airpo, California, USA
Distance from station: NW 21mi, 34km
Updated: Fri, 23-Jun-2017 11:35pm PDT
Clear
Clear
 Wind from NW
Wind: NW 7 mph , 11 km/h
Temperature: 63°F , 17°C
Dew Point: 55°F , 13°C
Humidity: 77%
Barometer: 29.95 inHg , 1014.2 hPa
Clouds: Clear
Visibility: 10 miles , 16 km
2017/06/24 06:35 KSQL 240635Z AUTO 32006KT 10SM CLR 17/13 A2995 RMK AO2
KE16 - San Martin, California, USA
Distance from station: ESE 27mi, 43km
Updated: Fri, 23-Jun-2017 11:35pm PDT
Partly Cloudy
Partly Cloudy
 Wind from SE
Wind: SE 5 mph , 7 km/h
Temperature: 59°F , 15°C
Dew Point: 55°F , 13°C
Humidity: 88%
Barometer: 29.97 inHg , 1014.9 hPa
Clouds: Partly Cloudy
Visibility: 10 miles , 16 km
Cloud details: Partly Cloudy 1800 ft
2017/06/24 06:35 KE16 240635Z AUTO 14004KT 10SM SCT018 15/13 A2997 RMK AO2
 
KWVI - Watsonville, California, USA
Distance from station: SSE 27mi, 44km
Updated: Fri, 23-Jun-2017 10:53pm PDT
Overcast
Overcast
 Wind from W
Wind: W 7 mph , 11 km/h
Temperature: 57°F , 14°C
Dew Point: 57°F , 14°C
Humidity: 100%
Barometer: 29.97 inHg , 1014.9 hPa
Clouds: Overcast
Visibility: 9 miles , 14 km
Cloud details: Overcast 400 ft
2017/06/24 05:53 KWVI 240553Z AUTO 27006KT 9SM OVC004 14/14 A2997 RMK AO2 SLP149 T01440144 10183 20144 53007
KHWD - Hayward, California, USA
Distance from station: N 28mi, 44km
Updated: Fri, 23-Jun-2017 11:23pm PDT
Mostly Cloudy
Mostly Cloudy
 Wind from NW
Wind: NW 9 mph , 15 km/h
Temperature: 61°F , 16°C
Dew Point: 54°F , 12°C
Humidity: 77%
Barometer: 29.94 inHg , 1013.9 hPa
Clouds: Mostly Cloudy
Visibility: 10 miles , 16 km
Cloud details: Mostly Cloudy 800 ft
2017/06/24 06:23 KHWD 240623Z AUTO 31008KT 10SM BKN008 16/12 A2994 RMK AO2 T01610117
 
KSFO - San Francisco, California, USA
Distance from station: NW 30mi, 49km
Updated: Fri, 23-Jun-2017 10:56pm PDT
Few Clouds
Few Clouds
 Wind from WNW
Wind: WNW 14 mph , 22 km/h
Temperature: 59°F , 15°C
Dew Point: 55°F , 13°C
Humidity: 88%
Barometer: 29.94 inHg , 1013.9 hPa
Clouds: Few Clouds
Visibility: 10 miles , 16 km
Cloud details: Few Clouds 1500 ft
2017/06/24 05:56 KSFO 240556Z 29012KT 10SM FEW015 15/13 A2994 RMK AO2 SLP139 T01500128 10194 20150 51014
KHAF - Half Moon Bay, California, USA
Distance from station: WNW 31mi, 50km
Updated: Thu, 22-Jun-2017 6:25pm PDT
NOT Current
Clear
Clear
 Wind from SSE
Wind: SSE 12 mph , 19 km/h
Temperature: 61°F , 16°C
Dew Point: 55°F , 13°C
Humidity: 83%
Barometer: 29.81 inHg , 1009.5 hPa
Clouds: Clear
Visibility: 9 miles , 14 km
2017/06/23 01:25 KHAF 230125Z AUTO 16010KT 9SM CLR 16/13 A2981 RMK AO2
 
KOAK - Oakland, California, USA
Distance from station: NNW 31mi, 50km
Updated: Fri, 23-Jun-2017 10:53pm PDT
Overcast
Overcast
 Wind from NW
Wind: NW 13 mph , 20 km/h
Temperature: 61°F , 16°C
Dew Point: 57°F , 14°C
Humidity: 88%
Barometer: 29.95 inHg , 1014.2 hPa
Clouds: Overcast
Visibility: 10 miles , 16 km
Cloud details: Overcast 600 ft
2017/06/24 05:53 KOAK 240553Z 31011KT 10SM OVC006 16/14 A2995 RMK AO2 SLP142 T01610139 10211 20156 51013
KLVK - Livermore, California, USA
Distance from station: NNE 31mi, 51km
Updated: Fri, 23-Jun-2017 10:53pm PDT
Clear
Clear
 Wind from WNW
Wind: WNW 8 mph , 13 km/h
Temperature: 66°F , 19°C
Dew Point: 55°F , 13°C
Humidity: 68%
Barometer: 29.91 inHg , 1012.9 hPa
Clouds: Clear
Visibility: 10 miles , 16 km
2017/06/24 05:53 KLVK 240553Z AUTO 30007KT 10SM CLR 19/13 A2991 RMK AO2 SLP124 T01890128 10322 20189 51015
 
KCVH - Hollister Muni, California, USA
Distance from station: SE 42mi, 68km
Updated: Fri, 23-Jun-2017 11:30pm PDT
Clear
Clear
 Wind from WSW
Wind: WSW 8 mph , 13 km/h
Temperature: 57°F , 14°C
Dew Point: 55°F , 13°C
Humidity: 94%
Barometer: 29.97 inHg , 1014.9 hPa
Clouds: Clear
Visibility: 10 miles , 16 km
2017/06/24 06:30 KCVH 240630Z AUTO 25007KT 10SM CLR 14/13 A2997 RMK AO1
KSNS - Salinas, California, USA
Distance from station: SSE 48mi, 77km
Updated: Fri, 23-Jun-2017 10:53pm PDT
Overcast
Overcast
 Wind from WNW
Wind: WNW 10 mph , 17 km/h
Temperature: 59°F , 15°C
Dew Point: 55°F , 13°C
Humidity: 88%
Barometer: 29.96 inHg , 1014.6 hPa
Clouds: Overcast
Visibility: 9 miles , 14 km
Cloud details: Overcast 600 ft
2017/06/24 05:53 KSNS 240553Z AUTO 29009KT 9SM OVC006 15/13 A2996 RMK AO2 SLP154 T01500133 10183 20150 51006
 
KMRY - Monterey, California, USA
Distance from station: SSE 49mi, 78km
Updated: Fri, 23-Jun-2017 11:14pm PDT
Overcast
Overcast
 Wind from WNW
Wind: WNW 5 mph , 7 km/h
Temperature: 57°F , 14°C
Dew Point: 55°F , 13°C
Humidity: 94%
Barometer: 29.97 inHg , 1014.9 hPa
Clouds: Overcast
Visibility: 10 miles , 16 km
Cloud details: Overcast 400 ft
2017/06/24 06:14 KMRY 240614Z AUTO 29004KT 10SM OVC004 14/13 A2997 RMK AO2 T01440133
KCCR - Concord, California, USA
Distance from station: N 50mi, 81km
Updated: Fri, 23-Jun-2017 10:53pm PDT
Clear
Clear
 Wind from NNW
Wind: NNW 6 mph , 9 km/h
Temperature: 66°F , 19°C
Dew Point: 55°F , 13°C
Humidity: 68%
Barometer: 29.90 inHg , 1012.5 hPa
Clouds: Clear
Visibility: 10 miles , 16 km
2017/06/24 05:53 KCCR 240553Z AUTO 33005KT 10SM CLR 19/13 A2990 RMK AO2 SLP111 T01890128 10317 20189 51014
deformed-offering